createdAt,value
2019-01-10T00:02:08.760Z,100566.81
2019-01-10T00:04:37.100Z,100572.56
2019-01-10T00:07:05.453Z,100580.37
2019-01-10T00:09:33.838Z,100577.93
2019-01-10T00:12:02.237Z,100571.17
2019-01-10T00:14:30.547Z,100586.68
2019-01-10T00:16:58.950Z,100585.60
2019-01-10T00:19:27.249Z,100581.91
2019-01-10T00:21:55.578Z,100588.88
2019-01-10T00:24:23.913Z,100593.13
2019-01-10T00:26:52.247Z,100601.93
2019-01-10T00:29:20.566Z,100603.39
2019-01-10T00:31:48.940Z,100605.55
2019-01-10T00:34:17.257Z,100616.55
2019-01-10T00:36:45.607Z,100611.80
2019-01-10T00:39:14.401Z,100623.01
2019-01-10T00:41:42.716Z,100618.14
2019-01-10T00:44:11.068Z,100623.95
2019-01-10T00:46:39.413Z,100620.58
2019-01-10T00:49:07.739Z,100629.14
2019-01-10T00:51:36.232Z,100631.17
2019-01-10T00:54:04.655Z,100638.41
2019-01-10T00:56:32.980Z,100637.30
2019-01-10T00:59:01.301Z,100640.63
2019-01-10T01:01:29.636Z,100641.48
2019-01-10T01:03:57.983Z,100643.59
2019-01-10T01:06:26.430Z,100645.38
2019-01-10T01:08:54.806Z,100650.41
2019-01-10T01:11:23.236Z,100645.92
2019-01-10T01:13:51.573Z,100650.46
2019-01-10T01:16:19.915Z,100646.44
2019-01-10T01:18:48.239Z,100660.25
2019-01-10T01:21:16.717Z,100655.70
2019-01-10T01:23:45.077Z,100659.45
2019-01-10T01:26:13.941Z,100658.89
2019-01-10T01:28:42.287Z,100653.14
2019-01-10T01:31:10.600Z,100654.52
2019-01-10T01:33:38.946Z,100660.37
2019-01-10T01:36:07.558Z,100660.73
2019-01-10T01:38:35.966Z,100664.89
2019-01-10T01:41:04.325Z,100665.67
2019-01-10T01:43:32.758Z,100669.92
2019-01-10T01:46:01.203Z,100676.81
2019-01-10T01:48:29.555Z,100675.22
2019-01-10T01:50:57.888Z,100677.03
2019-01-10T01:53:26.749Z,100680.52
2019-01-10T01:55:55.100Z,100686.67
2019-01-10T01:58:23.459Z,100688.13
2019-01-10T02:00:51.797Z,100693.13
2019-01-10T02:03:20.166Z,100700.02
2019-01-10T02:05:48.484Z,100711.12
2019-01-10T02:08:16.916Z,100707.55
2019-01-10T02:10:45.247Z,100709.51
2019-01-10T02:13:16.858Z,100711.12
2019-01-10T02:15:44.582Z,100719.28
2019-01-10T02:18:13.025Z,100717.45
2019-01-10T02:20:41.400Z,100714.94
2019-01-10T02:23:09.792Z,100717.94
2019-01-10T02:25:38.290Z,100718.02
2019-01-10T02:28:06.715Z,100720.19
2019-01-10T02:30:41.883Z,100729.72
2019-01-10T02:33:05.487Z,100733.97
2019-01-10T02:35:33.815Z,100730.21
2019-01-10T02:38:02.222Z,100727.21
2019-01-10T02:40:30.723Z,100735.51
2019-01-10T02:42:59.043Z,100734.58
2019-01-10T02:45:27.412Z,100732.30
2019-01-10T02:47:55.729Z,100736.61
2019-01-10T02:50:24.232Z,100742.97
2019-01-10T02:52:52.548Z,100741.78
2019-01-10T02:55:22.267Z,100738.02
2019-01-10T02:57:50.634Z,100737.05
2019-01-10T03:00:20.960Z,100746.44
2019-01-10T03:02:49.357Z,100746.91
2019-01-10T03:05:18.283Z,100751.87
2019-01-10T03:07:46.792Z,100750.55
2019-01-10T03:10:20.038Z,100747.69
2019-01-10T03:12:48.527Z,100752.81
2019-01-10T03:15:17.983Z,100751.82
2019-01-10T03:17:46.318Z,100751.25
2019-01-10T03:20:18.770Z,100748.81
2019-01-10T03:22:47.218Z,100744.93
2019-01-10T03:25:16.690Z,100737.45
2019-01-10T03:27:44.989Z,100747.01
2019-01-10T03:30:16.153Z,100746.66
2019-01-10T03:32:44.480Z,100739.34
2019-01-10T03:35:13.156Z,100735.51
2019-01-10T03:37:41.597Z,100737.17
2019-01-10T03:40:14.327Z,100733.28
2019-01-10T03:42:42.735Z,100733.02
2019-01-10T03:45:13.602Z,100734.31
2019-01-10T03:47:42.080Z,100730.83
2019-01-10T03:50:13.160Z,100741.20
2019-01-10T03:52:41.477Z,100728.95
2019-01-10T03:55:10.248Z,100733.77
2019-01-10T03:57:38.642Z,100736.28
2019-01-10T04:00:13.524Z,100736.07
2019-01-10T04:02:41.904Z,100739.20
2019-01-10T04:05:10.389Z,100742.19
2019-01-10T04:07:38.737Z,100731.52
2019-01-10T04:10:07.931Z,100738.22
2019-01-10T04:12:36.371Z,100735.66
2019-01-10T04:15:06.758Z,100735.92
2019-01-10T04:17:36.085Z,100736.81
2019-01-10T04:20:06.415Z,100740.16
2019-01-10T04:22:34.754Z,100744.28
2019-01-10T04:25:03.418Z,100740.78
2019-01-10T04:27:31.762Z,100743.08
2019-01-10T04:30:00.288Z,100760.38
2019-01-10T04:32:28.694Z,100761.64
2019-01-10T04:34:57.003Z,100760.23
2019-01-10T04:37:25.343Z,100761.34
2019-01-10T04:39:53.665Z,100763.59
2019-01-10T04:42:22.013Z,100762.45
2019-01-10T04:44:50.347Z,100764.84
2019-01-10T04:47:18.711Z,100766.95
2019-01-10T04:49:47.014Z,100779.09
2019-01-10T04:52:15.692Z,100778.08
2019-01-10T04:54:44.008Z,100776.53
2019-01-10T04:57:12.672Z,100779.53
2019-01-10T04:59:40.965Z,100783.29
2019-01-10T05:02:18.138Z,100783.29
2019-01-10T05:04:39.684Z,100781.74
2019-01-10T05:07:08.151Z,100784.03
2019-01-10T05:09:36.486Z,100789.64
2019-01-10T05:12:04.830Z,100795.86
2019-01-10T05:14:33.195Z,100790.88
2019-01-10T05:17:01.567Z,100790.83
2019-01-10T05:19:29.893Z,100791.00
2019-01-10T05:21:58.276Z,100788.40
2019-01-10T05:24:26.619Z,100801.98
2019-01-10T05:26:54.945Z,100802.52
2019-01-10T05:29:23.355Z,100799.79
2019-01-10T05:31:52.392Z,100808.30
2019-01-10T05:34:20.744Z,100805.30
2019-01-10T05:36:49.244Z,100802.70
2019-01-10T05:39:17.966Z,100808.17
2019-01-10T05:41:46.502Z,100810.47
2019-01-10T05:44:15.187Z,100808.52
2019-01-10T05:46:48.740Z,100817.66
2019-01-10T05:49:14.263Z,100811.30
2019-01-10T05:51:42.601Z,100811.53
2019-01-10T05:54:10.930Z,100818.49
2019-01-10T05:56:39.310Z,100818.59
2019-01-10T05:59:07.668Z,100815.41
2019-01-10T06:01:36.051Z,100814.92
2019-01-10T06:04:04.442Z,100818.09
2019-01-10T06:06:32.763Z,100820.66
2019-01-10T06:09:01.103Z,100821.62
2019-01-10T06:11:29.424Z,100828.83
2019-01-10T06:13:57.764Z,100832.80
2019-01-10T06:16:26.077Z,100833.64
2019-01-10T06:18:54.418Z,100841.94
2019-01-10T06:21:22.752Z,100847.67
2019-01-10T06:23:51.103Z,100840.07
2019-01-10T06:26:19.497Z,100842.23
2019-01-10T06:28:47.864Z,100848.86
2019-01-10T06:31:16.179Z,100841.44
2019-01-10T06:33:44.596Z,100848.18
2019-01-10T06:36:13.381Z,100847.83
2019-01-10T06:38:41.694Z,100853.38
2019-01-10T06:41:10.026Z,100846.98
2019-01-10T06:43:38.333Z,100861.56
2019-01-10T06:46:06.669Z,100866.63
2019-01-10T06:48:37.847Z,100867.83
2019-01-10T06:51:06.209Z,100866.39
2019-01-10T06:53:34.526Z,100873.72
2019-01-10T06:56:02.872Z,100869.16
2019-01-10T06:58:31.197Z,100879.38
2019-01-10T07:00:59.613Z,100876.48
2019-01-10T07:03:27.944Z,100876.47
2019-01-10T07:05:56.280Z,100875.02
2019-01-10T07:08:24.595Z,100887.19
2019-01-10T07:10:52.960Z,100881.30
2019-01-10T07:13:21.249Z,100884.80
2019-01-10T07:16:14.839Z,100897.91
2019-01-10T07:18:43.139Z,100904.03
2019-01-10T07:21:11.539Z,100902.44
2019-01-10T07:23:44.428Z,100908.09
2019-01-10T07:26:12.809Z,100905.80
2019-01-10T07:28:41.193Z,100915.45
2019-01-10T07:31:12.060Z,100916.98
2019-01-10T07:33:40.368Z,100919.98
2019-01-10T07:36:09.780Z,100926.62
2019-01-10T07:38:40.106Z,100928.66
2019-01-10T07:41:08.931Z,100933.13
2019-01-10T07:43:38.008Z,100928.56
2019-01-10T07:46:06.687Z,100933.95
2019-01-10T07:48:35.017Z,100934.31
2019-01-10T07:51:03.426Z,100939.13
2019-01-10T07:53:31.746Z,100939.00
2019-01-10T07:56:00.086Z,100940.58
2019-01-10T07:58:28.414Z,100947.07
2019-01-10T08:00:57.113Z,100943.22
2019-01-10T08:03:25.442Z,100950.41
2019-01-10T08:05:53.832Z,100951.38
2019-01-10T08:08:22.232Z,100953.44
2019-01-10T08:10:50.651Z,100955.14
2019-01-10T08:13:19.605Z,100968.23
2019-01-10T08:15:48.094Z,100957.77
2019-01-10T08:18:16.522Z,100971.14
2019-01-10T08:20:44.854Z,100967.28
2019-01-10T08:23:13.224Z,100967.50
2019-01-10T08:25:41.546Z,100973.41
2019-01-10T08:28:10.184Z,100977.38
2019-01-10T08:30:38.585Z,100978.47
2019-01-10T08:33:07.092Z,100986.03
2019-01-10T08:35:35.533Z,100983.52
2019-01-10T08:38:04.136Z,100991.81
2019-01-10T08:40:32.488Z,100993.27
2019-01-10T08:43:00.934Z,100990.98
2019-01-10T08:45:29.297Z,100996.72
2019-01-10T08:47:57.672Z,100995.04
2019-01-10T08:50:26.226Z,100993.92
2019-01-10T08:52:54.817Z,100986.42
2019-01-10T08:55:23.230Z,100998.41
2019-01-10T08:57:51.636Z,100996.24
2019-01-10T09:00:20.718Z,100994.07
2019-01-10T09:02:49.215Z,101004.56
2019-01-10T09:05:17.613Z,101005.76
2019-01-10T09:07:45.989Z,101005.72
2019-01-10T09:10:17.521Z,101007.27
2019-01-10T09:12:45.899Z,101003.42
2019-01-10T09:15:23.028Z,101004.88
2019-01-10T09:17:44.792Z,101009.91
2019-01-10T09:20:14.001Z,101015.38
2019-01-10T09:22:42.572Z,101007.13
2019-01-10T09:25:11.833Z,101008.59
2019-01-10T09:27:40.199Z,101015.98
2019-01-10T09:30:12.887Z,101013.98
2019-01-10T09:32:41.831Z,101016.86
2019-01-10T09:35:10.620Z,101021.94
2019-01-10T09:37:39.118Z,101023.48
2019-01-10T09:40:11.805Z,101021.41
2019-01-10T09:42:40.366Z,101021.72
2019-01-10T09:45:10.175Z,101006.75
2019-01-10T09:47:38.481Z,101018.41
2019-01-10T09:50:10.277Z,101023.91
2019-01-10T09:52:38.597Z,101024.61
2019-01-10T09:55:08.269Z,101022.09
2019-01-10T09:57:36.861Z,101023.84
2019-01-10T10:00:09.479Z,101024.55
2019-01-10T10:02:37.794Z,101023.37
2019-01-10T10:05:06.336Z,101035.15
2019-01-10T10:07:34.657Z,101028.34
2019-01-10T10:10:03.033Z,101021.77
2019-01-10T10:12:31.348Z,101027.61
2019-01-10T10:14:59.744Z,101022.56
2019-01-10T10:17:28.103Z,101028.75
2019-01-10T10:19:56.445Z,101025.48
2019-01-10T10:22:24.820Z,101037.02
2019-01-10T10:24:53.202Z,101025.44
2019-01-10T10:27:21.549Z,101034.59
2019-01-10T10:29:49.860Z,101036.22
2019-01-10T10:32:18.161Z,101044.70
2019-01-10T10:34:47.081Z,101030.83
2019-01-10T10:37:15.509Z,101033.83
2019-01-10T10:39:43.848Z,101027.82
2019-01-10T10:42:12.244Z,101035.52
2019-01-10T10:44:40.660Z,101030.61
2019-01-10T10:47:09.187Z,101044.70
2019-01-10T10:49:37.529Z,101042.79
2019-01-10T10:52:05.912Z,101039.80
2019-01-10T10:54:34.233Z,101041.78
2019-01-10T10:57:02.642Z,101037.68
2019-01-10T10:59:31.019Z,101044.48
2019-01-10T11:02:00.244Z,101048.38
2019-01-10T11:04:29.332Z,101037.59
2019-01-10T11:06:58.431Z,101041.74
2019-01-10T11:09:27.302Z,101040.11
2019-01-10T11:11:56.367Z,101041.83
2019-01-10T11:14:25.276Z,101034.98
2019-01-10T11:16:54.453Z,101030.25
2019-01-10T11:19:22.838Z,101032.91
2019-01-10T11:21:51.170Z,101029.95
2019-01-10T11:24:19.713Z,101046.02
2019-01-10T11:26:48.081Z,101047.27
2019-01-10T11:29:16.403Z,101039.17
2019-01-10T11:31:44.744Z,101039.70
2019-01-10T11:34:13.063Z,101040.84
2019-01-10T11:36:41.479Z,101033.70
2019-01-10T11:39:10.127Z,101032.95
2019-01-10T11:41:38.597Z,101040.81
2019-01-10T11:44:07.006Z,101037.84
2019-01-10T11:46:35.334Z,101035.88
2019-01-10T11:49:03.816Z,101037.13
2019-01-10T11:51:32.130Z,101035.29
2019-01-10T11:54:00.542Z,101030.77
2019-01-10T11:56:28.876Z,101038.13
2019-01-10T11:58:57.236Z,101033.66
2019-01-10T12:01:25.558Z,101042.71
2019-01-10T12:03:53.927Z,101037.97
2019-01-10T12:06:22.248Z,101038.33
2019-01-10T12:08:50.570Z,101042.30
2019-01-10T12:11:18.882Z,101038.23
2019-01-10T12:13:47.297Z,101039.55
2019-01-10T12:16:15.656Z,101040.72
2019-01-10T12:18:43.987Z,101034.77
2019-01-10T12:21:12.433Z,101032.81
2019-01-10T12:23:40.777Z,101036.22
2019-01-10T12:26:09.485Z,101029.46
2019-01-10T12:28:37.835Z,101036.22
2019-01-10T12:31:06.337Z,101034.31
2019-01-10T12:33:34.687Z,101033.02
2019-01-10T12:36:03.154Z,101034.02
2019-01-10T12:38:31.493Z,101033.16
2019-01-10T12:40:59.798Z,101031.22
2019-01-10T12:43:28.235Z,101030.17
2019-01-10T12:45:56.551Z,101034.41
2019-01-10T12:48:24.896Z,101018.22
2019-01-10T12:50:53.301Z,101026.01
2019-01-10T12:53:21.631Z,101030.05
2019-01-10T12:55:49.993Z,101030.67
2019-01-10T12:58:18.312Z,101032.47
2019-01-10T13:00:46.659Z,101029.44
2019-01-10T13:03:15.038Z,101027.06
2019-01-10T13:05:43.417Z,101037.41
2019-01-10T13:08:11.830Z,101027.39
2019-01-10T13:10:40.290Z,101030.53
2019-01-10T13:13:08.965Z,101035.75
2019-01-10T13:15:37.346Z,101041.41
2019-01-10T13:18:05.855Z,101037.19
2019-01-10T13:20:34.203Z,101036.97
2019-01-10T13:23:02.545Z,101042.49
2019-01-10T13:25:31.143Z,101031.16
2019-01-10T13:27:59.556Z,101043.31
2019-01-10T13:30:27.947Z,101042.75
2019-01-10T13:32:56.809Z,101050.55
2019-01-10T13:35:25.409Z,101045.88
2019-01-10T13:37:53.753Z,101053.81
2019-01-10T13:40:22.198Z,101048.05
2019-01-10T13:42:50.585Z,101047.30
2019-01-10T13:45:19.109Z,101055.86
2019-01-10T13:47:49.080Z,101048.76
2019-01-10T13:50:20.230Z,101055.24
2019-01-10T13:52:48.573Z,101052.97
2019-01-10T13:55:18.442Z,101049.00
2019-01-10T13:57:46.965Z,101062.95
2019-01-10T14:00:18.170Z,101057.55
2019-01-10T14:02:46.658Z,101065.37
2019-01-10T14:05:15.175Z,101058.39
2019-01-10T14:07:43.654Z,101063.30
2019-01-10T14:10:14.480Z,101064.05
2019-01-10T14:12:42.926Z,101069.22
2019-01-10T14:15:15.735Z,101061.77
2019-01-10T14:17:44.142Z,101061.28
2019-01-10T14:20:12.982Z,101065.50
2019-01-10T14:22:41.408Z,101083.79
2019-01-10T14:25:10.299Z,101068.84
2019-01-10T14:27:38.893Z,101076.81
2019-01-10T14:30:13.577Z,101080.17
2019-01-10T14:32:42.161Z,101080.89
2019-01-10T14:35:11.343Z,101076.22
2019-01-10T14:37:39.740Z,101089.33
2019-01-10T14:40:10.370Z,101083.77
2019-01-10T14:42:38.801Z,101079.80
2019-01-10T14:45:11.058Z,101080.53
2019-01-10T14:47:39.378Z,101082.56
2019-01-10T14:50:10.207Z,101087.64
2019-01-10T14:52:38.666Z,101084.84
2019-01-10T14:55:11.958Z,101086.55
2019-01-10T14:57:40.611Z,101088.22
2019-01-10T15:00:11.514Z,101090.39
2019-01-10T15:02:39.826Z,101091.84
2019-01-10T15:05:08.473Z,101103.67
2019-01-10T15:07:36.850Z,101098.02
2019-01-10T15:10:07.303Z,101100.81
2019-01-10T15:12:35.619Z,101100.24
2019-01-10T15:15:07.786Z,101107.69
2019-01-10T15:17:36.289Z,101112.53
2019-01-10T15:20:07.818Z,101113.12
2019-01-10T15:22:36.171Z,101119.39
2019-01-10T15:25:05.286Z,101117.67
2019-01-10T15:27:33.648Z,101130.43
2019-01-10T15:30:01.989Z,101125.64
2019-01-10T15:32:30.317Z,101128.99
2019-01-10T15:34:58.674Z,101128.99
2019-01-10T15:37:26.990Z,101128.39
2019-01-10T15:39:55.344Z,101122.97
2019-01-10T15:42:23.760Z,101129.61
2019-01-10T15:44:52.124Z,101128.53
2019-01-10T15:47:20.443Z,101125.63
2019-01-10T15:49:48.811Z,101133.73
2019-01-10T15:52:17.131Z,101129.22
2019-01-10T15:54:45.480Z,101130.73
2019-01-10T15:57:13.876Z,101133.30
2019-01-10T15:59:42.216Z,101139.42
2019-01-10T16:02:10.605Z,101133.73
2019-01-10T16:04:38.982Z,101141.08
2019-01-10T16:07:07.694Z,101136.90
2019-01-10T16:09:36.016Z,101139.58
2019-01-10T16:12:04.568Z,101143.52
2019-01-10T16:14:32.893Z,101149.25
2019-01-10T16:17:01.236Z,101148.05
2019-01-10T16:19:29.606Z,101146.33
2019-01-10T16:21:57.923Z,101158.23
2019-01-10T16:24:26.282Z,101170.09
2019-01-10T16:26:54.604Z,101165.16
2019-01-10T16:29:22.930Z,101163.59
2019-01-10T16:31:51.383Z,101168.04
2019-01-10T16:34:19.697Z,101174.59
2019-01-10T16:36:48.028Z,101174.16
2019-01-10T16:39:16.474Z,101179.03
2019-01-10T16:41:44.784Z,101169.50
2019-01-10T16:44:13.578Z,101177.05
2019-01-10T16:46:41.896Z,101169.00
2019-01-10T16:49:10.243Z,101177.42
2019-01-10T16:51:38.597Z,101176.98
2019-01-10T16:54:06.909Z,101177.23
2019-01-10T16:56:35.267Z,101176.94
2019-01-10T16:59:03.946Z,101173.70
2019-01-10T17:01:32.398Z,101172.25
2019-01-10T17:04:00.812Z,101177.17
2019-01-10T17:06:29.221Z,101178.93
2019-01-10T17:08:57.535Z,101184.77
2019-01-10T17:11:25.879Z,101177.95
2019-01-10T17:13:54.234Z,101182.36
2019-01-10T17:16:22.632Z,101179.89
2019-01-10T17:18:51.029Z,101176.41
2019-01-10T17:21:19.479Z,101170.95
2019-01-10T17:23:47.782Z,101174.44
2019-01-10T17:26:16.184Z,101168.04
2019-01-10T17:28:44.522Z,101162.14
2019-01-10T17:31:13.310Z,101161.43
2019-01-10T17:33:41.660Z,101164.88
2019-01-10T17:36:10.021Z,101162.47
2019-01-10T17:38:38.348Z,101163.59
2019-01-10T17:41:06.832Z,101166.88
2019-01-10T17:43:35.141Z,101179.92
2019-01-10T17:46:03.604Z,101183.28
2019-01-10T17:48:32.089Z,101179.27
2019-01-10T17:51:00.436Z,101176.88
2019-01-10T17:53:28.806Z,101176.20
2019-01-10T17:55:57.133Z,101178.63
2019-01-10T17:58:25.471Z,101182.53
2019-01-10T18:00:53.873Z,101189.05
2019-01-10T18:03:22.209Z,101189.97
2019-01-10T18:05:50.561Z,101194.89
2019-01-10T18:08:18.917Z,101200.83
2019-01-10T18:10:47.234Z,101198.16
2019-01-10T18:13:16.049Z,101198.97
2019-01-10T18:15:44.380Z,101206.77
2019-01-10T18:18:12.862Z,101204.58
2019-01-10T18:20:41.311Z,101204.03
2019-01-10T18:23:09.768Z,101197.88
2019-01-10T18:25:38.165Z,101198.55
2019-01-10T18:28:06.585Z,101194.58
2019-01-10T18:30:35.040Z,101205.36
2019-01-10T18:33:03.543Z,101206.13
2019-01-10T18:35:32.029Z,101209.80
2019-01-10T18:38:00.372Z,101204.26
2019-01-10T18:40:28.754Z,101206.06
2019-01-10T18:45:08.620Z,101205.80
2019-01-10T18:47:36.959Z,101215.73
2019-01-10T18:50:09.221Z,101219.43
2019-01-10T18:52:37.606Z,101211.61
2019-01-10T18:55:06.230Z,101209.14
2019-01-10T18:57:34.582Z,101210.30
2019-01-10T19:00:05.290Z,101206.36
2019-01-10T19:02:33.636Z,101202.06
2019-01-10T19:05:02.012Z,101200.16
2019-01-10T19:07:30.406Z,101205.47
2019-01-10T19:09:58.926Z,101207.07
2019-01-10T19:12:27.486Z,101206.91
2019-01-10T19:14:55.902Z,101213.37
2019-01-10T19:17:26.211Z,101213.14
2019-01-10T19:19:54.622Z,101205.64
2019-01-10T19:22:23.345Z,101206.73
2019-01-10T19:24:51.969Z,101207.77
2019-01-10T19:27:20.335Z,101211.19
2019-01-10T19:29:48.652Z,101217.44
2019-01-10T19:32:16.988Z,101216.50
2019-01-10T19:34:45.305Z,101207.05
2019-01-10T19:37:13.930Z,101205.48
2019-01-10T19:39:42.245Z,101204.70
2019-01-10T19:42:12.741Z,101206.67
2019-01-10T19:44:40.920Z,101203.27
2019-01-10T19:47:09.305Z,101203.50
2019-01-10T19:49:37.681Z,101204.71
2019-01-10T19:52:06.021Z,101208.66
2019-01-10T19:54:34.354Z,101212.16
2019-01-10T19:57:02.673Z,101208.92
2019-01-10T19:59:31.187Z,101212.64
2019-01-10T20:01:59.521Z,101214.38
2019-01-10T20:04:27.912Z,101217.05
2019-01-10T20:06:56.314Z,101213.23
2019-01-10T20:09:29.944Z,101210.73
2019-01-10T20:11:54.968Z,101230.20
2019-01-10T20:14:23.316Z,101230.06
2019-01-10T20:16:51.641Z,101237.89
2019-01-10T20:19:19.994Z,101235.36
2019-01-10T20:21:48.289Z,101230.43
2019-01-10T20:24:16.745Z,101229.38
2019-01-10T20:26:45.139Z,101227.69
2019-01-10T20:29:14.211Z,101225.82
2019-01-10T20:31:42.510Z,101233.94
2019-01-10T20:34:10.883Z,101231.75
2019-01-10T20:36:39.215Z,101238.76
2019-01-10T20:39:07.919Z,101240.47
2019-01-10T20:41:36.330Z,101233.78
2019-01-10T20:44:04.912Z,101236.90
2019-01-10T20:46:33.315Z,101240.22
2019-01-10T20:49:01.636Z,101234.51
2019-01-10T20:51:30.033Z,101236.38
2019-01-10T20:53:58.407Z,101242.10
2019-01-10T20:56:26.805Z,101240.95
2019-01-10T20:58:55.107Z,101232.95
2019-01-10T21:01:25.166Z,101231.41
2019-01-10T21:03:53.628Z,101231.16
2019-01-10T21:06:21.959Z,101238.43
2019-01-10T21:08:50.406Z,101236.63
2019-01-10T21:11:18.760Z,101246.36
2019-01-10T21:13:47.133Z,101234.41
2019-01-10T21:16:15.683Z,101239.75
2019-01-10T21:18:44.133Z,101238.91
2019-01-10T21:21:12.725Z,101245.72
2019-01-10T21:23:41.095Z,101239.94
2019-01-10T21:26:10.488Z,101247.50
2019-01-10T21:28:38.849Z,101251.54
2019-01-10T21:31:08.414Z,101237.77
2019-01-10T21:33:36.775Z,101241.61
2019-01-10T21:36:05.098Z,101249.27
2019-01-10T21:38:33.414Z,101249.09
2019-01-10T21:41:01.782Z,101240.17
2019-01-10T21:43:30.200Z,101240.06
2019-01-10T21:45:58.550Z,101239.70
2019-01-10T21:48:26.887Z,101240.30
2019-01-10T21:50:55.380Z,101243.43
2019-01-10T21:53:23.759Z,101246.67
2019-01-10T21:55:52.093Z,101245.34
2019-01-10T21:58:20.521Z,101235.61
2019-01-10T22:00:48.856Z,101235.68
2019-01-10T22:03:17.387Z,101230.19
2019-01-10T22:05:46.362Z,101231.05
2019-01-10T22:08:15.001Z,101235.17
2019-01-10T22:10:43.429Z,101234.10
2019-01-10T22:13:11.971Z,101232.30
2019-01-10T22:15:40.295Z,101223.94
2019-01-10T22:18:08.840Z,101222.80
2019-01-10T22:20:37.278Z,101226.48
2019-01-10T22:23:05.634Z,101227.06
2019-01-10T22:25:35.033Z,101231.03
2019-01-10T22:28:03.433Z,101233.08
2019-01-10T22:30:31.758Z,101225.38
2019-01-10T22:33:00.234Z,101219.55
2019-01-10T22:35:28.560Z,101221.89
2019-01-10T22:37:56.890Z,101230.55
2019-01-10T22:40:25.266Z,101223.34
2019-01-10T22:42:54.461Z,101222.20
2019-01-10T22:45:23.871Z,101218.30
2019-01-10T22:47:52.417Z,101217.45
2019-01-10T22:50:22.039Z,101214.25
2019-01-10T22:52:50.496Z,101211.00
2019-01-10T22:55:19.005Z,101215.77
2019-01-10T22:57:47.549Z,101216.17
2019-01-10T23:00:23.599Z,101209.07
2019-01-10T23:02:56.389Z,101201.88
2019-01-10T23:05:24.807Z,101204.05
2019-01-10T23:07:53.390Z,101203.77
2019-01-10T23:10:21.773Z,101203.57
2019-01-10T23:12:50.175Z,101200.00
2019-01-10T23:15:21.217Z,101202.17
2019-01-10T23:17:51.033Z,101208.69
2019-01-10T23:20:20.001Z,101201.34
2019-01-10T23:22:48.300Z,101204.04
2019-01-10T23:25:16.969Z,101202.61
2019-01-10T23:27:45.672Z,101197.23
2019-01-10T23:30:15.021Z,101198.59
2019-01-10T23:32:43.341Z,101202.67
2019-01-10T23:35:11.969Z,101198.76
2019-01-10T23:37:40.293Z,101203.34
2019-01-10T23:40:09.609Z,101199.00
2019-01-10T23:42:37.911Z,101194.66
2019-01-10T23:45:07.669Z,101199.36
2019-01-10T23:47:35.984Z,101202.92
2019-01-10T23:50:06.317Z,101204.70
2019-01-10T23:52:34.709Z,101210.06
2019-01-10T23:55:03.236Z,101215.22
2019-01-10T23:57:33.124Z,101214.92
